createdAt,value
2022-10-19T00:02:22.707Z,10.91
2022-10-19T00:04:49.395Z,10.85
2022-10-19T00:07:16.014Z,10.98
2022-10-19T00:09:45.449Z,11.06
2022-10-19T00:12:13.033Z,11.05
2022-10-19T00:14:39.758Z,10.96
2022-10-19T00:17:06.394Z,10.67
2022-10-19T00:19:33.135Z,10.84
2022-10-19T00:22:00.297Z,10.89
2022-10-19T00:24:26.894Z,10.94
2022-10-19T00:26:53.506Z,10.87
2022-10-19T00:29:20.147Z,10.64
2022-10-19T00:31:50.050Z,10.90
2022-10-19T00:34:17.515Z,10.95
2022-10-19T00:36:44.118Z,10.89
2022-10-19T00:39:13.422Z,11.02
2022-10-19T00:41:41.048Z,10.98
2022-10-19T00:44:13.611Z,10.98
2022-10-19T00:46:45.777Z,10.94
2022-10-19T00:49:24.855Z,11.00
2022-10-19T00:51:55.596Z,10.63
2022-10-19T00:54:23.618Z,10.78
2022-10-19T00:56:53.456Z,10.66
2022-10-19T00:59:22.187Z,10.79
2022-10-19T01:01:49.913Z,10.90
2022-10-19T01:04:16.884Z,10.82
2022-10-19T01:06:44.048Z,10.63
2022-10-19T01:09:10.703Z,10.53
2022-10-19T01:11:57.026Z,10.48
2022-10-19T01:14:42.957Z,10.06
2022-10-19T01:17:15.351Z,10.51
2022-10-19T01:20:13.125Z,10.53
2022-10-19T01:22:58.182Z,10.69
2022-10-19T01:25:36.284Z,10.51
2022-10-19T01:28:35.234Z,10.55
2022-10-19T01:31:13.875Z,10.47
2022-10-19T01:33:48.416Z,10.73
2022-10-19T01:36:39.697Z,10.06
2022-10-19T01:39:27.416Z,10.09
2022-10-19T01:42:06.052Z,10.05
2022-10-19T01:44:43.034Z,9.60
2022-10-19T01:47:22.717Z,9.95
2022-10-19T01:50:11.142Z,10.03
2022-10-19T01:52:40.966Z,10.11
2022-10-19T01:55:11.675Z,10.27
2022-10-19T01:57:47.869Z,10.37
2022-10-19T02:00:17.251Z,10.36
2022-10-19T02:02:48.618Z,10.40
2022-10-19T02:05:19.302Z,10.41
2022-10-19T02:07:50.963Z,10.47
2022-10-19T02:10:19.299Z,10.35
2022-10-19T02:12:46.955Z,10.50
2022-10-19T02:15:17.740Z,10.23
2022-10-19T02:17:49.236Z,9.99
2022-10-19T02:20:17.110Z,10.11
2022-10-19T02:22:43.889Z,9.98
2022-10-19T02:25:12.199Z,10.17
2022-10-19T02:27:42.157Z,10.23
2022-10-19T02:30:14.419Z,9.84
2022-10-19T02:32:41.787Z,10.13
2022-10-19T02:35:08.957Z,9.92
2022-10-19T02:40:04.817Z,10.14
2022-10-19T02:42:39.283Z,10.09
2022-10-19T02:45:12.313Z,10.27
2022-10-19T02:47:48.574Z,9.94
2022-10-19T02:50:15.712Z,10.17
2022-10-19T02:52:42.563Z,10.08
2022-10-19T02:55:09.972Z,10.07
2022-10-19T02:57:37.036Z,9.78
2022-10-19T03:00:06.444Z,9.75
2022-10-19T03:02:33.115Z,9.61
2022-10-19T03:04:59.778Z,9.80
2022-10-19T03:07:26.448Z,9.91
2022-10-19T03:09:53.067Z,10.11
2022-10-19T03:12:19.742Z,10.21
2022-10-19T03:14:46.350Z,10.15
2022-10-19T03:17:12.985Z,10.13
2022-10-19T03:19:39.632Z,10.29
2022-10-19T03:22:06.276Z,10.31
2022-10-19T03:24:33.099Z,9.88
2022-10-19T03:26:59.852Z,9.67
2022-10-19T03:29:26.430Z,9.55
2022-10-19T03:31:52.994Z,9.93
2022-10-19T03:34:19.600Z,9.85
2022-10-19T03:36:46.329Z,9.85
2022-10-19T03:39:14.838Z,9.90
2022-10-19T03:41:42.407Z,9.89
2022-10-19T03:44:10.518Z,9.79
2022-10-19T03:46:38.030Z,9.62
2022-10-19T03:49:05.263Z,9.69
2022-10-19T03:51:33.122Z,9.80
2022-10-19T03:54:04.599Z,9.47
2022-10-19T03:56:32.301Z,9.55
2022-10-19T03:59:00.822Z,9.65
2022-10-19T04:01:33.220Z,9.67
2022-10-19T04:04:03.288Z,9.59
2022-10-19T04:06:40.756Z,9.46
2022-10-19T04:09:09.078Z,9.56
2022-10-19T04:11:36.047Z,9.72
2022-10-19T04:14:02.792Z,9.69
2022-10-19T04:16:30.768Z,9.75
2022-10-19T04:18:58.369Z,9.51
2022-10-19T04:21:29.308Z,9.39
2022-10-19T04:24:05.094Z,9.57
2022-10-19T04:26:32.269Z,9.69
2022-10-19T04:29:00.103Z,9.76
2022-10-19T04:31:28.416Z,9.73
2022-10-19T04:33:56.013Z,9.49
2022-10-19T04:36:23.480Z,9.38
2022-10-19T04:38:50.109Z,9.48
2022-10-19T04:41:19.838Z,9.62
2022-10-19T04:43:47.609Z,9.59
2022-10-19T04:46:17.822Z,9.57
2022-10-19T04:48:45.995Z,9.61
2022-10-19T04:51:13.088Z,9.44
2022-10-19T04:53:41.136Z,9.39
2022-10-19T04:56:11.397Z,9.35
2022-10-19T04:58:37.951Z,9.64
2022-10-19T05:01:09.670Z,9.59
2022-10-19T05:03:36.484Z,9.68
2022-10-19T05:06:03.699Z,9.60
2022-10-19T05:08:30.601Z,9.09
2022-10-19T05:11:05.485Z,9.41
2022-10-19T05:13:33.077Z,9.68
2022-10-19T05:16:01.401Z,9.49
2022-10-19T05:18:28.824Z,9.87
2022-10-19T05:21:07.011Z,9.56
2022-10-19T05:23:34.059Z,9.69
2022-10-19T05:26:11.303Z,9.78
2022-10-19T05:28:37.914Z,9.90
2022-10-19T05:31:15.418Z,9.49
2022-10-19T05:33:42.670Z,9.76
2022-10-19T05:36:15.290Z,9.67
2022-10-19T05:38:43.242Z,9.86
2022-10-19T05:41:10.091Z,9.88
2022-10-19T05:43:36.768Z,10.01
2022-10-19T05:46:08.459Z,10.08
2022-10-19T05:48:35.687Z,10.09
2022-10-19T05:51:05.379Z,10.08
2022-10-19T05:53:33.864Z,10.20
2022-10-19T05:56:00.479Z,9.92
2022-10-19T05:58:33.712Z,10.23
2022-10-19T06:01:02.266Z,10.26
2022-10-19T06:03:29.297Z,10.38
2022-10-19T06:05:56.081Z,10.07
2022-10-19T06:08:23.898Z,10.22
2022-10-19T06:10:51.326Z,9.94
2022-10-19T06:13:19.707Z,9.59
2022-10-19T06:15:50.482Z,9.98
2022-10-19T06:18:17.084Z,10.38
2022-10-19T06:20:43.687Z,10.52
2022-10-19T06:23:10.248Z,10.58
2022-10-19T06:25:37.005Z,10.57
2022-10-19T06:28:03.973Z,10.56
2022-10-19T06:30:30.756Z,10.68
2022-10-19T06:32:59.439Z,10.67
2022-10-19T06:35:26.120Z,10.78
2022-10-19T06:37:52.874Z,10.65
2022-10-19T06:40:19.617Z,10.78
2022-10-19T06:42:46.192Z,10.90
2022-10-19T06:45:12.806Z,11.12
2022-10-19T06:47:39.497Z,11.24
2022-10-19T06:50:07.525Z,11.21
2022-10-19T06:52:35.822Z,11.38
2022-10-19T06:55:03.489Z,11.58
2022-10-19T06:57:30.330Z,11.68
2022-10-19T06:59:56.921Z,11.82
2022-10-19T07:02:23.517Z,11.88
2022-10-19T07:04:50.241Z,11.85
2022-10-19T07:07:16.890Z,11.98
2022-10-19T07:09:43.723Z,11.95
2022-10-19T07:12:10.955Z,12.06
2022-10-19T07:14:39.709Z,12.32
2022-10-19T07:17:07.691Z,12.30
2022-10-19T07:19:34.939Z,12.25
2022-10-19T07:22:01.957Z,12.64
2022-10-19T07:24:28.553Z,12.72
2022-10-19T07:26:55.546Z,12.65
2022-10-19T07:29:22.283Z,12.73
2022-10-19T07:31:48.948Z,12.69
2022-10-19T07:34:16.244Z,12.74
2022-10-19T07:36:47.970Z,12.83
2022-10-19T07:39:17.190Z,12.70
2022-10-19T07:41:44.382Z,12.41
2022-10-19T07:44:15.594Z,12.68
2022-10-19T07:46:43.061Z,12.66
2022-10-19T07:49:20.358Z,12.73
2022-10-19T07:51:47.134Z,12.84
2022-10-19T07:54:13.980Z,13.03
2022-10-19T07:56:40.996Z,13.40
2022-10-19T07:59:07.789Z,13.66
2022-10-19T08:01:38.404Z,13.39
2022-10-19T08:06:54.566Z,13.32
2022-10-19T08:09:50.987Z,13.43
2022-10-19T08:12:12.356Z,13.80
2022-10-19T08:14:41.464Z,13.95
2022-10-19T08:17:11.782Z,14.27
2022-10-19T08:19:43.444Z,14.34
2022-10-19T08:22:11.219Z,14.23
2022-10-19T08:24:38.087Z,14.26
2022-10-19T08:27:05.169Z,14.44
2022-10-19T08:29:32.136Z,14.35
2022-10-19T08:31:59.410Z,14.32
2022-10-19T08:34:26.316Z,14.57
2022-10-19T08:36:52.921Z,14.43
2022-10-19T08:39:19.587Z,14.85
2022-10-19T08:42:13.174Z,14.74
2022-10-19T08:44:39.863Z,15.32
2022-10-19T08:47:17.455Z,15.45
2022-10-19T08:49:46.430Z,15.54
2022-10-19T08:52:20.251Z,15.66
2022-10-19T08:57:24.363Z,15.69
2022-10-19T09:00:12.919Z,15.67
2022-10-19T09:02:39.437Z,15.71
2022-10-19T09:05:23.989Z,15.34
2022-10-19T09:07:54.194Z,15.92
2022-10-19T09:10:26.745Z,15.95
2022-10-19T09:12:59.805Z,16.18
2022-10-19T09:15:36.774Z,16.19
2022-10-19T09:18:03.422Z,15.77
2022-10-19T09:20:39.406Z,15.94
2022-10-19T09:23:34.865Z,15.73
2022-10-19T09:26:01.597Z,15.91
2022-10-19T09:28:45.468Z,16.18
2022-10-19T09:31:29.131Z,16.26
2022-10-19T09:34:02.513Z,16.11
2022-10-19T09:36:55.825Z,16.03
2022-10-19T09:39:25.699Z,16.10
2022-10-19T09:41:58.025Z,16.15
2022-10-19T09:44:25.877Z,16.00
2022-10-19T09:47:10.215Z,15.76
2022-10-19T09:49:45.697Z,16.57
2022-10-19T09:52:37.258Z,16.31
2022-10-19T09:55:13.424Z,16.84
2022-10-19T09:57:48.908Z,16.14
2022-10-19T10:00:19.616Z,16.55
2022-10-19T10:02:54.727Z,17.08
2022-10-19T10:05:40.011Z,16.92
2022-10-19T10:08:19.964Z,16.63
2022-10-19T10:10:53.743Z,17.33
2022-10-19T10:13:24.080Z,17.06
2022-10-19T10:15:56.870Z,17.23
2022-10-19T10:18:25.312Z,17.13
2022-10-19T10:21:14.720Z,17.32
2022-10-19T10:23:41.503Z,17.52
2022-10-19T10:26:18.492Z,17.24
2022-10-19T10:28:50.591Z,17.16
2022-10-19T10:31:25.051Z,17.57
2022-10-19T10:34:10.984Z,18.08
2022-10-19T10:36:51.701Z,17.34
2022-10-19T10:39:18.385Z,17.33
2022-10-19T10:41:48.112Z,17.88
2022-10-19T10:44:45.321Z,17.87
2022-10-19T10:47:16.795Z,17.98
2022-10-19T10:49:44.594Z,17.66
2022-10-19T10:52:14.395Z,17.37
2022-10-19T10:54:56.945Z,17.93
2022-10-19T10:57:27.267Z,18.23
2022-10-19T11:00:16.781Z,18.33
2022-10-19T11:02:56.342Z,18.08
2022-10-19T11:05:29.294Z,18.21
2022-10-19T11:08:03.476Z,18.23
2022-10-19T11:10:48.833Z,18.29
2022-10-19T11:13:34.059Z,18.74
2022-10-19T11:16:14.954Z,18.69
2022-10-19T11:18:45.066Z,18.54
2022-10-19T11:21:31.539Z,18.66
2022-10-19T11:24:11.779Z,18.45
2022-10-19T11:26:46.244Z,18.56
2022-10-19T11:29:12.786Z,18.72
2022-10-19T11:31:47.206Z,18.59
2022-10-19T11:34:26.119Z,18.71
2022-10-19T11:37:04.825Z,18.55
2022-10-19T11:39:51.612Z,18.25
2022-10-19T11:42:38.890Z,18.13
2022-10-19T11:45:30.106Z,18.14
2022-10-19T11:48:23.737Z,18.43
2022-10-19T11:51:20.554Z,18.09
2022-10-19T11:53:58.069Z,18.36
2022-10-19T11:57:05.535Z,18.46
2022-10-19T11:59:49.988Z,19.00
2022-10-19T12:02:37.838Z,19.31
2022-10-19T12:05:32.258Z,19.43
2022-10-19T12:08:30.065Z,19.22
2022-10-19T12:10:59.343Z,19.36
2022-10-19T12:13:34.333Z,19.28
2022-10-19T12:16:01.954Z,19.49
2022-10-19T12:18:48.850Z,19.50
2022-10-19T12:21:27.353Z,19.08
2022-10-19T12:23:57.041Z,18.96
2022-10-19T12:26:24.886Z,18.94
2022-10-19T12:28:58.603Z,19.06
2022-10-19T12:31:27.685Z,19.07
2022-10-19T12:34:00.226Z,18.91
2022-10-19T12:36:26.819Z,18.90
2022-10-19T12:39:12.375Z,19.34
2022-10-19T12:41:52.478Z,19.26
2022-10-19T12:47:07.175Z,19.53
2022-10-19T12:49:33.824Z,19.41
2022-10-19T12:52:01.703Z,19.54
2022-10-19T12:54:33.674Z,19.82
2022-10-19T12:57:02.894Z,19.73
2022-10-19T12:59:36.411Z,19.42
2022-10-19T13:02:06.743Z,19.81
2022-10-19T13:04:35.898Z,19.95
2022-10-19T13:07:11.049Z,19.76
2022-10-19T13:09:43.203Z,19.83
2022-10-19T13:12:19.573Z,19.52
2022-10-19T13:14:56.445Z,19.36
2022-10-19T13:17:38.122Z,19.29
2022-10-19T13:20:14.238Z,19.64
2022-10-19T13:22:59.507Z,19.82
2022-10-19T13:25:27.773Z,19.60
2022-10-19T13:28:09.284Z,19.33
2022-10-19T13:30:36.201Z,19.76
2022-10-19T13:33:27.644Z,19.94
2022-10-19T13:36:00.029Z,20.19
2022-10-19T13:38:30.167Z,19.92
2022-10-19T13:41:03.196Z,19.86
2022-10-19T13:43:41.955Z,20.00
2022-10-19T13:46:30.574Z,20.17
2022-10-19T13:49:15.349Z,20.14
2022-10-19T13:51:54.177Z,19.89
2022-10-19T13:54:32.702Z,19.96
2022-10-19T13:57:25.239Z,20.04
2022-10-19T14:00:20.034Z,20.02
2022-10-19T14:02:56.018Z,19.97
2022-10-19T14:05:50.242Z,19.97
2022-10-19T14:08:43.305Z,20.01
2022-10-19T14:11:20.190Z,20.13
2022-10-19T14:14:09.075Z,19.97
2022-10-19T14:16:45.815Z,20.03
2022-10-19T14:19:27.597Z,19.81
2022-10-19T14:21:56.214Z,19.86
2022-10-19T14:24:40.683Z,19.66
2022-10-19T14:27:08.082Z,19.81
2022-10-19T14:29:46.110Z,19.76
2022-10-19T14:32:13.510Z,19.86
2022-10-19T14:34:45.488Z,19.74
2022-10-19T14:37:21.795Z,19.58
2022-10-19T14:39:58.813Z,19.01
2022-10-19T14:42:42.731Z,19.25
2022-10-19T14:45:23.962Z,19.16
2022-10-19T14:47:55.203Z,18.64
2022-10-19T14:50:26.972Z,19.05
2022-10-19T14:53:01.019Z,18.71
2022-10-19T14:55:35.783Z,18.60
2022-10-19T14:58:09.173Z,18.85
2022-10-19T15:00:36.009Z,19.08
2022-10-19T15:03:10.901Z,18.96
2022-10-19T15:05:48.481Z,18.54
2022-10-19T15:08:48.588Z,18.49
2022-10-19T15:11:39.953Z,18.42
2022-10-19T15:14:14.239Z,18.63
2022-10-19T15:16:46.560Z,18.46
2022-10-19T15:19:19.663Z,18.56
2022-10-19T15:22:18.414Z,18.48
2022-10-19T15:25:06.992Z,18.19
2022-10-19T15:27:41.949Z,18.33
2022-10-19T15:30:17.299Z,18.20
2022-10-19T15:32:51.761Z,18.25
2022-10-19T15:35:39.897Z,18.17
2022-10-19T15:38:14.583Z,18.03
2022-10-19T15:40:43.696Z,17.99
2022-10-19T15:43:33.061Z,17.92
2022-10-19T15:46:00.378Z,17.88
2022-10-19T15:48:34.987Z,17.90
2022-10-19T15:51:01.635Z,17.86
2022-10-19T15:53:28.705Z,17.90
2022-10-19T15:55:55.427Z,18.03
2022-10-19T15:58:22.090Z,17.92
2022-10-19T16:00:49.035Z,17.82
2022-10-19T16:03:16.466Z,17.70
2022-10-19T16:05:43.156Z,17.62
2022-10-19T16:08:12.455Z,17.66
2022-10-19T16:10:39.270Z,17.51
2022-10-19T16:13:06.036Z,17.57
2022-10-19T16:15:33.480Z,17.57
2022-10-19T16:18:00.534Z,17.58
2022-10-19T16:20:29.858Z,17.57
2022-10-19T16:22:57.203Z,17.65
2022-10-19T16:25:24.026Z,17.51
2022-10-19T16:27:50.757Z,17.57
2022-10-19T16:30:17.636Z,17.24
2022-10-19T16:32:44.199Z,17.28
2022-10-19T16:35:11.811Z,17.06
2022-10-19T16:37:38.445Z,17.47
2022-10-19T16:40:05.681Z,17.48
2022-10-19T16:42:33.053Z,17.32
2022-10-19T16:45:00.044Z,17.19
2022-10-19T16:47:26.810Z,17.39
2022-10-19T16:49:59.021Z,17.01
2022-10-19T16:52:26.949Z,17.04
2022-10-19T16:54:53.865Z,17.10
2022-10-19T16:57:20.753Z,17.33
2022-10-19T16:59:50.375Z,17.26
2022-10-19T17:02:17.440Z,17.24
2022-10-19T17:04:44.425Z,17.27
2022-10-19T17:07:12.245Z,17.11
2022-10-19T17:09:42.262Z,17.24
2022-10-19T17:12:10.231Z,17.31
2022-10-19T17:14:41.217Z,17.03
2022-10-19T17:17:08.553Z,17.08
2022-10-19T17:19:36.470Z,17.06
2022-10-19T17:22:03.610Z,17.04
2022-10-19T17:24:31.768Z,16.87
2022-10-19T17:27:01.248Z,16.82
2022-10-19T17:29:27.809Z,16.94
2022-10-19T17:31:54.501Z,16.97
2022-10-19T17:34:21.277Z,16.80
2022-10-19T17:36:48.556Z,16.84
2022-10-19T17:39:19.061Z,16.91
2022-10-19T17:41:47.131Z,16.84
2022-10-19T17:44:14.368Z,16.36
2022-10-19T17:46:41.184Z,16.50
2022-10-19T17:49:08.050Z,16.62
2022-10-19T17:51:38.002Z,16.67
2022-10-19T17:54:12.833Z,16.84
2022-10-19T17:56:43.572Z,16.69
2022-10-19T17:59:10.272Z,16.62
2022-10-19T18:01:37.430Z,16.70
2022-10-19T18:04:05.005Z,16.86
2022-10-19T18:06:35.354Z,16.80
2022-10-19T18:09:04.214Z,16.54
2022-10-19T18:11:37.397Z,16.38
2022-10-19T18:14:04.764Z,16.43
2022-10-19T18:16:39.823Z,16.54
2022-10-19T18:19:07.640Z,16.82
2022-10-19T18:21:38.704Z,16.87
2022-10-19T18:24:08.190Z,16.64
2022-10-19T18:26:36.844Z,16.45
2022-10-19T18:29:17.143Z,16.45
2022-10-19T18:31:44.034Z,16.64
2022-10-19T18:34:15.335Z,16.72
2022-10-19T18:36:42.329Z,16.56
2022-10-19T18:39:11.025Z,16.53
2022-10-19T18:41:38.607Z,16.54
2022-10-19T18:44:06.936Z,16.44
2022-10-19T18:46:36.889Z,16.15
2022-10-19T18:49:06.841Z,16.11
2022-10-19T18:51:33.541Z,16.30
2022-10-19T18:54:00.176Z,16.39
2022-10-19T18:56:29.622Z,16.47
2022-10-19T18:58:57.145Z,16.34
2022-10-19T19:01:26.901Z,16.40
2022-10-19T19:03:57.010Z,16.45
2022-10-19T19:06:26.560Z,16.35
2022-10-19T19:08:57.874Z,16.26
2022-10-19T19:11:27.674Z,16.40
2022-10-19T19:14:02.100Z,16.62
2022-10-19T19:16:32.124Z,16.43
2022-10-19T19:18:58.943Z,16.26
2022-10-19T19:21:27.545Z,16.31
2022-10-19T19:23:56.122Z,16.45
2022-10-19T19:26:24.951Z,16.33
2022-10-19T19:28:51.891Z,15.83
2022-10-19T19:31:18.927Z,16.05
2022-10-19T19:33:47.335Z,15.76
2022-10-19T19:36:16.096Z,15.14
2022-10-19T19:38:43.354Z,15.29
2022-10-19T19:41:13.227Z,15.42
2022-10-19T19:43:40.871Z,15.51
2022-10-19T19:46:12.531Z,15.43
2022-10-19T19:48:40.767Z,15.69
2022-10-19T19:51:28.634Z,15.72
2022-10-19T19:53:55.259Z,15.62
2022-10-19T19:56:21.982Z,15.97
2022-10-19T19:58:48.602Z,15.93
2022-10-19T20:01:20.560Z,16.07
2022-10-19T20:03:48.177Z,15.78
2022-10-19T20:06:20.732Z,15.42
2022-10-19T20:08:50.283Z,15.86
2022-10-19T20:11:17.638Z,15.76
2022-10-19T20:13:45.774Z,15.85
2022-10-19T20:16:15.801Z,15.89
2022-10-19T20:18:45.433Z,16.08
2022-10-19T20:21:12.914Z,16.22
2022-10-19T20:23:39.719Z,16.10
2022-10-19T20:26:06.625Z,16.10
2022-10-19T20:28:33.574Z,16.12
2022-10-19T20:31:08.286Z,16.29
2022-10-19T20:33:37.528Z,16.27
2022-10-19T20:36:09.650Z,16.43
2022-10-19T20:38:38.643Z,16.21
2022-10-19T20:41:09.764Z,16.32
2022-10-19T20:43:38.108Z,16.45
2022-10-19T20:46:16.585Z,16.36
2022-10-19T20:48:43.690Z,16.61
2022-10-19T20:51:20.984Z,16.65
2022-10-19T20:53:50.366Z,16.51
2022-10-19T20:56:23.103Z,16.76
2022-10-19T20:58:57.772Z,16.37
2022-10-19T21:01:25.236Z,16.10
2022-10-19T21:03:54.731Z,16.38
2022-10-19T21:06:23.268Z,15.99
2022-10-19T21:08:50.113Z,16.19
2022-10-19T21:11:22.811Z,16.43
2022-10-19T21:13:53.563Z,16.27
2022-10-19T21:16:22.247Z,16.25
2022-10-19T21:18:50.196Z,16.42
2022-10-19T21:21:21.254Z,16.27
2022-10-19T21:23:53.650Z,16.11
2022-10-19T21:26:20.899Z,16.27
2022-10-19T21:28:49.537Z,16.30
2022-10-19T21:31:17.363Z,16.50
2022-10-19T21:33:44.582Z,16.48
2022-10-19T21:36:12.182Z,16.58
2022-10-19T21:38:38.965Z,16.46
2022-10-19T21:41:08.570Z,16.70
2022-10-19T21:43:35.385Z,16.70
2022-10-19T21:46:07.059Z,16.71
2022-10-19T21:48:34.363Z,16.71
2022-10-19T21:51:12.924Z,16.70
2022-10-19T21:53:39.563Z,16.68
2022-10-19T21:56:06.434Z,16.57
2022-10-19T21:58:33.006Z,16.81
2022-10-19T22:01:06.792Z,16.43
2022-10-19T22:03:33.776Z,16.43
2022-10-19T22:06:00.591Z,16.11
2022-10-19T22:08:27.588Z,16.23
2022-10-19T22:10:54.314Z,16.44
2022-10-19T22:13:21.051Z,16.42
2022-10-19T22:15:47.718Z,16.36
2022-10-19T22:18:14.375Z,16.47
2022-10-19T22:20:41.218Z,16.69
2022-10-19T22:23:08.226Z,16.37
2022-10-19T22:25:35.831Z,16.45
2022-10-19T22:28:02.671Z,16.59
2022-10-19T22:30:29.406Z,16.44
2022-10-19T22:32:56.037Z,16.73
2022-10-19T22:35:22.679Z,16.46
2022-10-19T22:37:49.285Z,16.39
2022-10-19T22:40:15.902Z,16.18
2022-10-19T22:43:38.725Z,15.88
2022-10-19T22:47:01.711Z,15.74
2022-10-19T22:50:24.235Z,15.55
2022-10-19T22:52:59.878Z,15.92
2022-10-19T22:55:26.440Z,16.02
2022-10-19T22:57:53.059Z,15.92
2022-10-19T23:00:20.138Z,16.04
2022-10-19T23:02:46.678Z,16.36
2022-10-19T23:05:13.325Z,16.20
2022-10-19T23:07:39.893Z,16.00
2022-10-19T23:10:06.969Z,15.77
2022-10-19T23:12:33.534Z,15.55
2022-10-19T23:15:00.185Z,15.75
2022-10-19T23:17:26.793Z,15.87
2022-10-19T23:19:53.373Z,15.79
2022-10-19T23:22:19.927Z,15.11
2022-10-19T23:24:46.486Z,15.51
2022-10-19T23:27:13.572Z,15.42
2022-10-19T23:29:40.282Z,15.52
2022-10-19T23:32:06.940Z,15.07
2022-10-19T23:37:05.009Z,15.43
2022-10-19T23:39:31.622Z,15.26
2022-10-19T23:41:58.217Z,15.29
2022-10-19T23:44:24.793Z,15.75
2022-10-19T23:46:51.413Z,15.19
2022-10-19T23:49:18.001Z,15.41
2022-10-19T23:51:44.595Z,15.23
2022-10-19T23:54:11.155Z,15.45
2022-10-19T23:56:37.726Z,15.26
2022-10-19T23:59:07.369Z,15.19
